Daniel Field Augusta US
ICAO: KDNL
IATA: DNL
Category: Medium
Scheduled Services: No

Elevation: 423 ft
TransAlt. 18000 ft.

Airport Communications:
AUGUSTA APP/DEP:126.8
ASOS:135.275
CLNC DEL:128.1
MACON RDO:122.3
CTAF/UNICOM:123.05

KDNL Zoom In..

If you have problems with the map follow the link
https://www.worldairports.se/pages/airport.php?
ICAO=KDNL

Runways:

(A) RW 05 length 4002 ft width 100 ft
---- / hdg 50

(B) RW 11 length 3733 ft width 100 ft
---- / hdg 108

(C) RW 23 length 4002 ft width 100 ft
---- / hdg 230

(D) RW 29 length 3733 ft width 100 ft
---- / hdg 288

Location; KDNL
Day. 21 / Time. 06.53 Zulu
* Altimeter: 29.98
* Temperature: 15° c. 59°f.
* Wind from: 290° Speed 07 kn.
Dewpoint: 08° c.
Visibility: 10 Statute Miles.
Clouds: Clear (automated report).

KDNL 210653Z AUTO 29007KT 10SM CLR 15/08 A2998 RMK AO2 SLP149 T01500083


Wind From 290°
Speed 07 kn.

 
 
jpsmedia.com for Web Design worldairports.se 2018   terms of use